sensor_id;sensor_type;location;lat;lon;timestamp;P1;durP1;ratioP1;P2;durP2;ratioP2
14799;SDS011;7491;57.750;11.970;2022-08-21T00:01:31;9.35;;;2.15;;
14799;SDS011;7491;57.750;11.970;2022-08-21T00:03:57;6.75;;;1.73;;
14799;SDS011;7491;57.750;11.970;2022-08-21T00:06:31;6.75;;;2.03;;
14799;SDS011;7491;57.750;11.970;2022-08-21T00:08:58;8.38;;;2.35;;
14799;SDS011;7491;57.750;11.970;2022-08-21T00:11:26;6.10;;;2.20;;
14799;SDS011;7491;57.750;11.970;2022-08-21T00:13:53;5.15;;;2.33;;
14799;SDS011;7491;57.750;11.970;2022-08-21T00:16:20;10.23;;;2.08;;
14799;SDS011;7491;57.750;11.970;2022-08-21T00:18:47;4.78;;;2.00;;
14799;SDS011;7491;57.750;11.970;2022-08-21T00:21:14;6.80;;;2.38;;
14799;SDS011;7491;57.750;11.970;2022-08-21T00:23:43;4.38;;;2.58;;
14799;SDS011;7491;57.750;11.970;2022-08-21T00:26:10;8.20;;;2.60;;
14799;SDS011;7491;57.750;11.970;2022-08-21T00:28:37;5.55;;;2.38;;
14799;SDS011;7491;57.750;11.970;2022-08-21T00:31:04;7.95;;;2.42;;
14799;SDS011;7491;57.750;11.970;2022-08-21T00:33:31;6.68;;;2.63;;
14799;SDS011;7491;57.750;11.970;2022-08-21T00:35:58;5.78;;;2.53;;
14799;SDS011;7491;57.750;11.970;2022-08-21T00:38:25;6.53;;;2.45;;
14799;SDS011;7491;57.750;11.970;2022-08-21T00:40:54;7.82;;;2.25;;
14799;SDS011;7491;57.750;11.970;2022-08-21T00:43:25;8.07;;;2.38;;
14799;SDS011;7491;57.750;11.970;2022-08-21T00:45:54;11.02;;;2.50;;
14799;SDS011;7491;57.750;11.970;2022-08-21T00:48:22;7.38;;;2.45;;
14799;SDS011;7491;57.750;11.970;2022-08-21T00:50:50;7.55;;;2.33;;
14799;SDS011;7491;57.750;11.970;2022-08-21T00:53:20;5.68;;;2.20;;
14799;SDS011;7491;57.750;11.970;2022-08-21T00:55:48;4.50;;;2.45;;
14799;SDS011;7491;57.750;11.970;2022-08-21T00:58:17;11.10;;;2.78;;
14799;SDS011;7491;57.750;11.970;2022-08-21T01:00:47;4.82;;;1.83;;
14799;SDS011;7491;57.750;11.970;2022-08-21T01:03:17;4.18;;;2.30;;
14799;SDS011;7491;57.750;11.970;2022-08-21T01:05:45;7.55;;;2.15;;
14799;SDS011;7491;57.750;11.970;2022-08-21T01:08:13;9.60;;;2.50;;
14799;SDS011;7491;57.750;11.970;2022-08-21T01:10:41;7.05;;;2.22;;
14799;SDS011;7491;57.750;11.970;2022-08-21T01:13:09;4.80;;;2.30;;
14799;SDS011;7491;57.750;11.970;2022-08-21T01:15:41;6.05;;;2.58;;
14799;SDS011;7491;57.750;11.970;2022-08-21T01:18:11;8.73;;;2.40;;
14799;SDS011;7491;57.750;11.970;2022-08-21T01:20:38;4.55;;;2.47;;
14799;SDS011;7491;57.750;11.970;2022-08-21T01:23:10;5.68;;;2.33;;
14799;SDS011;7491;57.750;11.970;2022-08-21T01:25:37;9.07;;;2.63;;
14799;SDS011;7491;57.750;11.970;2022-08-21T01:28:07;6.50;;;2.50;;
14799;SDS011;7491;57.750;11.970;2022-08-21T01:30:37;7.88;;;2.25;;
14799;SDS011;7491;57.750;11.970;2022-08-21T01:33:05;5.10;;;1.98;;
14799;SDS011;7491;57.750;11.970;2022-08-21T01:35:32;6.20;;;2.83;;
14799;SDS011;7491;57.750;11.970;2022-08-21T01:37:59;5.75;;;2.78;;
14799;SDS011;7491;57.750;11.970;2022-08-21T01:40:27;9.85;;;2.47;;
14799;SDS011;7491;57.750;11.970;2022-08-21T01:42:54;4.57;;;2.47;;
14799;SDS011;7491;57.750;11.970;2022-08-21T01:45:21;8.57;;;2.70;;
14799;SDS011;7491;57.750;11.970;2022-08-21T01:47:48;6.57;;;2.08;;
14799;SDS011;7491;57.750;11.970;2022-08-21T01:50:17;6.60;;;2.58;;
14799;SDS011;7491;57.750;11.970;2022-08-21T01:52:45;10.50;;;2.85;;
14799;SDS011;7491;57.750;11.970;2022-08-21T01:55:14;4.90;;;2.45;;
14799;SDS011;7491;57.750;11.970;2022-08-21T01:57:46;8.32;;;3.08;;
14799;SDS011;7491;57.750;11.970;2022-08-21T02:00:14;10.45;;;2.83;;
14799;SDS011;7491;57.750;11.970;2022-08-21T02:02:43;4.75;;;2.55;;
14799;SDS011;7491;57.750;11.970;2022-08-21T02:05:11;5.88;;;2.53;;
14799;SDS011;7491;57.750;11.970;2022-08-21T02:07:40;4.75;;;2.60;;
14799;SDS011;7491;57.750;11.970;2022-08-21T02:10:10;8.15;;;2.40;;
14799;SDS011;7491;57.750;11.970;2022-08-21T02:12:38;7.88;;;2.70;;
14799;SDS011;7491;57.750;11.970;2022-08-21T02:15:07;11.65;;;3.30;;
14799;SDS011;7491;57.750;11.970;2022-08-21T02:17:38;10.73;;;2.78;;
14799;SDS011;7491;57.750;11.970;2022-08-21T02:20:07;7.22;;;3.38;;
14799;SDS011;7491;57.750;11.970;2022-08-21T02:22:35;7.93;;;3.25;;
14799;SDS011;7491;57.750;11.970;2022-08-21T02:25:02;5.57;;;2.72;;
14799;SDS011;7491;57.750;11.970;2022-08-21T02:27:36;6.47;;;2.70;;
14799;SDS011;7491;57.750;11.970;2022-08-21T02:30:08;6.70;;;3.20;;
14799;SDS011;7491;57.750;11.970;2022-08-21T02:32:36;8.32;;;3.08;;
14799;SDS011;7491;57.750;11.970;2022-08-21T02:35:03;5.85;;;3.30;;
14799;SDS011;7491;57.750;11.970;2022-08-21T02:37:31;6.38;;;2.75;;
14799;SDS011;7491;57.750;11.970;2022-08-21T02:39:58;8.18;;;2.80;;
14799;SDS011;7491;57.750;11.970;2022-08-21T02:42:25;7.25;;;2.72;;
14799;SDS011;7491;57.750;11.970;2022-08-21T02:44:52;6.57;;;2.88;;
14799;SDS011;7491;57.750;11.970;2022-08-21T02:47:20;5.35;;;2.58;;
14799;SDS011;7491;57.750;11.970;2022-08-21T02:49:47;7.50;;;2.42;;
14799;SDS011;7491;57.750;11.970;2022-08-21T02:52:14;12.73;;;2.83;;
14799;SDS011;7491;57.750;11.970;2022-08-21T02:54:40;6.47;;;2.85;;
14799;SDS011;7491;57.750;11.970;2022-08-21T02:57:07;7.63;;;2.75;;
14799;SDS011;7491;57.750;11.970;2022-08-21T02:59:34;5.10;;;2.60;;
14799;SDS011;7491;57.750;11.970;2022-08-21T03:02:01;6.35;;;2.70;;
14799;SDS011;7491;57.750;11.970;2022-08-21T03:04:29;5.00;;;2.92;;
14799;SDS011;7491;57.750;11.970;2022-08-21T03:06:57;10.88;;;3.20;;
14799;SDS011;7491;57.750;11.970;2022-08-21T03:09:23;11.77;;;3.40;;
14799;SDS011;7491;57.750;11.970;2022-08-21T03:11:50;7.93;;;2.90;;
14799;SDS011;7491;57.750;11.970;2022-08-21T03:14:17;10.73;;;3.03;;
14799;SDS011;7491;57.750;11.970;2022-08-21T03:16:44;9.18;;;2.60;;
14799;SDS011;7491;57.750;11.970;2022-08-21T03:19:11;5.82;;;2.90;;
14799;SDS011;7491;57.750;11.970;2022-08-21T03:21:39;5.55;;;2.47;;
14799;SDS011;7491;57.750;11.970;2022-08-21T03:24:06;7.97;;;3.35;;
14799;SDS011;7491;57.750;11.970;2022-08-21T03:26:33;6.85;;;2.78;;
14799;SDS011;7491;57.750;11.970;2022-08-21T03:29:00;6.03;;;2.50;;
14799;SDS011;7491;57.750;11.970;2022-08-21T03:31:28;9.32;;;2.70;;
14799;SDS011;7491;57.750;11.970;2022-08-21T03:33:56;10.18;;;3.00;;
14799;SDS011;7491;57.750;11.970;2022-08-21T03:36:23;5.00;;;2.50;;
14799;SDS011;7491;57.750;11.970;2022-08-21T03:38:52;9.15;;;3.58;;
14799;SDS011;7491;57.750;11.970;2022-08-21T03:41:20;7.05;;;3.00;;
14799;SDS011;7491;57.750;11.970;2022-08-21T03:43:46;12.23;;;3.10;;
14799;SDS011;7491;57.750;11.970;2022-08-21T03:46:13;5.35;;;2.50;;
14799;SDS011;7491;57.750;11.970;2022-08-21T03:48:40;7.93;;;2.72;;
14799;SDS011;7491;57.750;11.970;2022-08-21T03:51:07;6.38;;;3.20;;
14799;SDS011;7491;57.750;11.970;2022-08-21T03:53:35;5.05;;;2.90;;
14799;SDS011;7491;57.750;11.970;2022-08-21T03:56:04;7.93;;;3.25;;
14799;SDS011;7491;57.750;11.970;2022-08-21T03:58:31;6.15;;;2.67;;
14799;SDS011;7491;57.750;11.970;2022-08-21T04:00:59;6.13;;;3.40;;
14799;SDS011;7491;57.750;11.970;2022-08-21T04:03:27;6.88;;;2.72;;
14799;SDS011;7491;57.750;11.970;2022-08-21T04:05:54;6.82;;;2.67;;
14799;SDS011;7491;57.750;11.970;2022-08-21T04:08:21;8.52;;;2.75;;
14799;SDS011;7491;57.750;11.970;2022-08-21T04:10:48;5.22;;;2.78;;
14799;SDS011;7491;57.750;11.970;2022-08-21T04:13:19;6.50;;;2.63;;
14799;SDS011;7491;57.750;11.970;2022-08-21T04:15:46;5.13;;;2.50;;
14799;SDS011;7491;57.750;11.970;2022-08-21T04:18:14;6.50;;;2.60;;
14799;SDS011;7491;57.750;11.970;2022-08-21T04:20:41;8.20;;;2.72;;
14799;SDS011;7491;57.750;11.970;2022-08-21T04:23:11;10.93;;;2.90;;
14799;SDS011;7491;57.750;11.970;2022-08-21T04:25:37;4.70;;;2.80;;
14799;SDS011;7491;57.750;11.970;2022-08-21T04:28:04;6.63;;;2.55;;
14799;SDS011;7491;57.750;11.970;2022-08-21T04:30:33;8.27;;;2.45;;
14799;SDS011;7491;57.750;11.970;2022-08-21T04:33:00;6.72;;;2.80;;
14799;SDS011;7491;57.750;11.970;2022-08-21T04:35:28;7.80;;;3.35;;
14799;SDS011;7491;57.750;11.970;2022-08-21T04:37:55;7.30;;;3.08;;
14799;SDS011;7491;57.750;11.970;2022-08-21T04:40:23;8.98;;;3.13;;
14799;SDS011;7491;57.750;11.970;2022-08-21T04:42:52;6.97;;;2.90;;
14799;SDS011;7491;57.750;11.970;2022-08-21T04:45:27;5.22;;;2.72;;
14799;SDS011;7491;57.750;11.970;2022-08-21T04:47:57;6.22;;;3.08;;
14799;SDS011;7491;57.750;11.970;2022-08-21T04:50:26;9.02;;;3.17;;
14799;SDS011;7491;57.750;11.970;2022-08-21T04:52:56;9.48;;;2.70;;
14799;SDS011;7491;57.750;11.970;2022-08-21T04:55:23;6.63;;;2.78;;
14799;SDS011;7491;57.750;11.970;2022-08-21T04:57:52;9.60;;;2.78;;
14799;SDS011;7491;57.750;11.970;2022-08-21T05:00:20;6.93;;;2.60;;
14799;SDS011;7491;57.750;11.970;2022-08-21T05:02:49;9.05;;;3.10;;
14799;SDS011;7491;57.750;11.970;2022-08-21T05:05:20;7.57;;;2.80;;
14799;SDS011;7491;57.750;11.970;2022-08-21T05:07:47;5.63;;;2.92;;
14799;SDS011;7491;57.750;11.970;2022-08-21T05:10:15;4.97;;;2.70;;
14799;SDS011;7491;57.750;11.970;2022-08-21T05:12:42;6.43;;;3.13;;
14799;SDS011;7491;57.750;11.970;2022-08-21T05:15:11;7.88;;;2.83;;
14799;SDS011;7491;57.750;11.970;2022-08-21T05:17:38;6.55;;;2.78;;
14799;SDS011;7491;57.750;11.970;2022-08-21T05:20:06;5.65;;;2.92;;
14799;SDS011;7491;57.750;11.970;2022-08-21T05:22:34;7.97;;;3.00;;
14799;SDS011;7491;57.750;11.970;2022-08-21T05:25:02;5.63;;;2.40;;
14799;SDS011;7491;57.750;11.970;2022-08-21T05:27:29;6.32;;;3.00;;
14799;SDS011;7491;57.750;11.970;2022-08-21T05:29:56;3.53;;;2.35;;
14799;SDS011;7491;57.750;11.970;2022-08-21T05:32:23;5.05;;;2.90;;
14799;SDS011;7491;57.750;11.970;2022-08-21T05:34:52;9.63;;;2.70;;
14799;SDS011;7491;57.750;11.970;2022-08-21T05:37:20;8.48;;;2.80;;
14799;SDS011;7491;57.750;11.970;2022-08-21T05:39:48;7.30;;;2.70;;
14799;SDS011;7491;57.750;11.970;2022-08-21T05:42:15;5.30;;;2.92;;
14799;SDS011;7491;57.750;11.970;2022-08-21T05:44:42;4.53;;;2.40;;
14799;SDS011;7491;57.750;11.970;2022-08-21T05:47:09;4.40;;;2.50;;
14799;SDS011;7491;57.750;11.970;2022-08-21T05:49:37;7.55;;;2.55;;
14799;SDS011;7491;57.750;11.970;2022-08-21T05:52:04;7.80;;;2.40;;
14799;SDS011;7491;57.750;11.970;2022-08-21T05:54:31;4.68;;;2.40;;
14799;SDS011;7491;57.750;11.970;2022-08-21T05:57:00;7.55;;;2.35;;
14799;SDS011;7491;57.750;11.970;2022-08-21T05:59:26;6.93;;;2.83;;
14799;SDS011;7491;57.750;11.970;2022-08-21T06:01:53;6.63;;;2.30;;
14799;SDS011;7491;57.750;11.970;2022-08-21T06:04:20;9.15;;;2.70;;
14799;SDS011;7491;57.750;11.970;2022-08-21T06:06:47;3.35;;;2.10;;
14799;SDS011;7491;57.750;11.970;2022-08-21T06:09:14;6.45;;;2.45;;
14799;SDS011;7491;57.750;11.970;2022-08-21T06:11:41;8.32;;;2.45;;
14799;SDS011;7491;57.750;11.970;2022-08-21T06:14:09;6.00;;;2.72;;
14799;SDS011;7491;57.750;11.970;2022-08-21T06:16:36;7.20;;;2.50;;
14799;SDS011;7491;57.750;11.970;2022-08-21T06:19:03;5.90;;;2.63;;
14799;SDS011;7491;57.750;11.970;2022-08-21T06:21:29;4.15;;;2.38;;
14799;SDS011;7491;57.750;11.970;2022-08-21T06:23:56;8.07;;;2.08;;
14799;SDS011;7491;57.750;11.970;2022-08-21T06:26:24;5.25;;;2.33;;
14799;SDS011;7491;57.750;11.970;2022-08-21T06:28:51;7.93;;;2.67;;
14799;SDS011;7491;57.750;11.970;2022-08-21T06:31:21;6.75;;;2.90;;
14799;SDS011;7491;57.750;11.970;2022-08-21T06:33:49;5.65;;;2.10;;
14799;SDS011;7491;57.750;11.970;2022-08-21T06:36:19;7.63;;;2.13;;
14799;SDS011;7491;57.750;11.970;2022-08-21T06:38:46;6.13;;;2.53;;
14799;SDS011;7491;57.750;11.970;2022-08-21T06:41:15;4.50;;;1.83;;
14799;SDS011;7491;57.750;11.970;2022-08-21T06:43:42;3.83;;;1.50;;
14799;SDS011;7491;57.750;11.970;2022-08-21T06:46:09;3.78;;;1.80;;
14799;SDS011;7491;57.750;11.970;2022-08-21T06:48:37;4.32;;;1.95;;
14799;SDS011;7491;57.750;11.970;2022-08-21T06:51:04;5.65;;;1.80;;
14799;SDS011;7491;57.750;11.970;2022-08-21T06:53:31;5.55;;;1.92;;
14799;SDS011;7491;57.750;11.970;2022-08-21T06:55:58;5.15;;;1.80;;
14799;SDS011;7491;57.750;11.970;2022-08-21T06:58:24;3.33;;;1.55;;
14799;SDS011;7491;57.750;11.970;2022-08-21T07:00:52;4.32;;;1.80;;
14799;SDS011;7491;57.750;11.970;2022-08-21T07:03:20;6.75;;;1.80;;
14799;SDS011;7491;57.750;11.970;2022-08-21T07:05:50;3.80;;;1.70;;
14799;SDS011;7491;57.750;11.970;2022-08-21T07:08:17;6.28;;;1.60;;
14799;SDS011;7491;57.750;11.970;2022-08-21T07:10:44;7.35;;;2.00;;
14799;SDS011;7491;57.750;11.970;2022-08-21T07:13:11;3.40;;;1.50;;
14799;SDS011;7491;57.750;11.970;2022-08-21T07:15:38;5.55;;;2.17;;
14799;SDS011;7491;57.750;11.970;2022-08-21T07:18:05;5.70;;;1.85;;
14799;SDS011;7491;57.750;11.970;2022-08-21T07:20:32;4.60;;;1.80;;
14799;SDS011;7491;57.750;11.970;2022-08-21T07:23:01;6.18;;;2.13;;
14799;SDS011;7491;57.750;11.970;2022-08-21T07:25:31;7.35;;;1.92;;
14799;SDS011;7491;57.750;11.970;2022-08-21T07:27:58;8.25;;;1.90;;
14799;SDS011;7491;57.750;11.970;2022-08-21T07:30:25;4.80;;;2.03;;
14799;SDS011;7491;57.750;11.970;2022-08-21T07:32:52;3.55;;;1.80;;
14799;SDS011;7491;57.750;11.970;2022-08-21T07:38:51;7.20;;;2.28;;
14799;SDS011;7491;57.750;11.970;2022-08-21T07:41:25;4.60;;;1.70;;
14799;SDS011;7491;57.750;11.970;2022-08-21T07:43:54;5.88;;;1.55;;
14799;SDS011;7491;57.750;11.970;2022-08-21T07:46:27;7.97;;;1.83;;
14799;SDS011;7491;57.750;11.970;2022-08-21T07:48:53;5.47;;;1.70;;
14799;SDS011;7491;57.750;11.970;2022-08-21T07:51:21;6.22;;;1.83;;
14799;SDS011;7491;57.750;11.970;2022-08-21T07:53:54;9.82;;;2.30;;
14799;SDS011;7491;57.750;11.970;2022-08-21T07:56:24;6.50;;;1.60;;
14799;SDS011;7491;57.750;11.970;2022-08-21T08:02:05;4.80;;;1.70;;
14799;SDS011;7491;57.750;11.970;2022-08-21T08:04:40;7.50;;;2.08;;
14799;SDS011;7491;57.750;11.970;2022-08-21T08:07:10;7.43;;;2.28;;
14799;SDS011;7491;57.750;11.970;2022-08-21T08:09:38;3.20;;;1.75;;
14799;SDS011;7491;57.750;11.970;2022-08-21T08:12:05;4.40;;;1.58;;
14799;SDS011;7491;57.750;11.970;2022-08-21T08:14:33;11.27;;;2.03;;
14799;SDS011;7491;57.750;11.970;2022-08-21T08:17:14;8.13;;;2.17;;
14799;SDS011;7491;57.750;11.970;2022-08-21T08:19:49;4.82;;;1.70;;
14799;SDS011;7491;57.750;11.970;2022-08-21T08:22:28;4.60;;;1.60;;
14799;SDS011;7491;57.750;11.970;2022-08-21T08:25:02;5.60;;;1.75;;
14799;SDS011;7491;57.750;11.970;2022-08-21T08:27:29;5.43;;;1.67;;
14799;SDS011;7491;57.750;11.970;2022-08-21T08:29:57;6.38;;;1.70;;
14799;SDS011;7491;57.750;11.970;2022-08-21T08:32:24;4.93;;;1.67;;
14799;SDS011;7491;57.750;11.970;2022-08-21T08:34:51;7.72;;;2.88;;
14799;SDS011;7491;57.750;11.970;2022-08-21T08:37:18;3.85;;;2.03;;
14799;SDS011;7491;57.750;11.970;2022-08-21T08:39:46;4.90;;;1.45;;
14799;SDS011;7491;57.750;11.970;2022-08-21T08:42:16;6.40;;;1.65;;
14799;SDS011;7491;57.750;11.970;2022-08-21T08:44:47;6.00;;;2.15;;
14799;SDS011;7491;57.750;11.970;2022-08-21T08:47:19;4.82;;;1.63;;
14799;SDS011;7491;57.750;11.970;2022-08-21T08:49:47;3.28;;;1.65;;
14799;SDS011;7491;57.750;11.970;2022-08-21T08:52:21;4.13;;;1.60;;
14799;SDS011;7491;57.750;11.970;2022-08-21T08:54:55;6.25;;;1.70;;
14799;SDS011;7491;57.750;11.970;2022-08-21T08:57:29;4.13;;;1.63;;
14799;SDS011;7491;57.750;11.970;2022-08-21T08:59:58;4.75;;;1.70;;
14799;SDS011;7491;57.750;11.970;2022-08-21T09:02:27;5.07;;;1.40;;
14799;SDS011;7491;57.750;11.970;2022-08-21T09:04:54;4.38;;;1.77;;
14799;SDS011;7491;57.750;11.970;2022-08-21T09:07:24;5.65;;;2.08;;
14799;SDS011;7491;57.750;11.970;2022-08-21T09:10:26;4.70;;;1.85;;
14799;SDS011;7491;57.750;11.970;2022-08-21T09:13:24;5.32;;;1.73;;
14799;SDS011;7491;57.750;11.970;2022-08-21T09:15:58;8.38;;;2.42;;
14799;SDS011;7491;57.750;11.970;2022-08-21T09:18:35;2.50;;;1.38;;
14799;SDS011;7491;57.750;11.970;2022-08-21T09:21:13;2.85;;;1.70;;
14799;SDS011;7491;57.750;11.970;2022-08-21T09:23:47;4.57;;;1.60;;
14799;SDS011;7491;57.750;11.970;2022-08-21T09:26:23;3.20;;;1.60;;
14799;SDS011;7491;57.750;11.970;2022-08-21T09:28:54;7.07;;;1.90;;
14799;SDS011;7491;57.750;11.970;2022-08-21T09:31:26;6.18;;;1.95;;
14799;SDS011;7491;57.750;11.970;2022-08-21T09:33:58;7.72;;;2.13;;
14799;SDS011;7491;57.750;11.970;2022-08-21T09:36:36;5.80;;;1.50;;
14799;SDS011;7491;57.750;11.970;2022-08-21T09:39:09;6.35;;;2.13;;
14799;SDS011;7491;57.750;11.970;2022-08-21T09:41:39;5.57;;;1.50;;
14799;SDS011;7491;57.750;11.970;2022-08-21T09:47:11;3.72;;;1.42;;
14799;SDS011;7491;57.750;11.970;2022-08-21T09:49:39;4.68;;;1.80;;
14799;SDS011;7491;57.750;11.970;2022-08-21T09:52:13;4.82;;;1.63;;
14799;SDS011;7491;57.750;11.970;2022-08-21T09:54:44;5.18;;;1.73;;
14799;SDS011;7491;57.750;11.970;2022-08-21T09:57:16;6.38;;;1.73;;
14799;SDS011;7491;57.750;11.970;2022-08-21T10:00:09;7.53;;;2.05;;
14799;SDS011;7491;57.750;11.970;2022-08-21T10:02:41;7.90;;;2.10;;
14799;SDS011;7491;57.750;11.970;2022-08-21T10:05:14;5.78;;;1.63;;
14799;SDS011;7491;57.750;11.970;2022-08-21T10:07:43;5.35;;;1.50;;
14799;SDS011;7491;57.750;11.970;2022-08-21T10:10:14;4.88;;;1.70;;
14799;SDS011;7491;57.750;11.970;2022-08-21T10:12:49;4.40;;;1.30;;
14799;SDS011;7491;57.750;11.970;2022-08-21T10:15:27;4.72;;;1.60;;
14799;SDS011;7491;57.750;11.970;2022-08-21T10:18:01;3.65;;;1.45;;
14799;SDS011;7491;57.750;11.970;2022-08-21T10:20:35;5.97;;;1.55;;
14799;SDS011;7491;57.750;11.970;2022-08-21T10:23:20;5.75;;;1.65;;
14799;SDS011;7491;57.750;11.970;2022-08-21T10:25:57;4.10;;;1.45;;
14799;SDS011;7491;57.750;11.970;2022-08-21T10:28:30;4.95;;;1.50;;
14799;SDS011;7491;57.750;11.970;2022-08-21T10:31:07;2.53;;;1.17;;
14799;SDS011;7491;57.750;11.970;2022-08-21T10:33:50;4.70;;;1.58;;
14799;SDS011;7491;57.750;11.970;2022-08-21T10:36:26;4.85;;;1.42;;
14799;SDS011;7491;57.750;11.970;2022-08-21T10:39:00;6.28;;;1.73;;
14799;SDS011;7491;57.750;11.970;2022-08-21T10:41:40;5.22;;;1.52;;
14799;SDS011;7491;57.750;11.970;2022-08-21T10:44:30;5.25;;;1.58;;
14799;SDS011;7491;57.750;11.970;2022-08-21T10:47:08;5.63;;;1.40;;
14799;SDS011;7491;57.750;11.970;2022-08-21T10:49:43;4.38;;;1.52;;
14799;SDS011;7491;57.750;11.970;2022-08-21T10:52:22;5.88;;;1.70;;
14799;SDS011;7491;57.750;11.970;2022-08-21T10:55:02;8.63;;;1.98;;
14799;SDS011;7491;57.750;11.970;2022-08-21T10:57:37;6.82;;;1.90;;
14799;SDS011;7491;57.750;11.970;2022-08-21T11:00:10;6.72;;;1.88;;
14799;SDS011;7491;57.750;11.970;2022-08-21T11:02:42;6.10;;;1.50;;
14799;SDS011;7491;57.750;11.970;2022-08-21T11:05:15;5.25;;;1.90;;
14799;SDS011;7491;57.750;11.970;2022-08-21T11:07:48;2.70;;;1.35;;
14799;SDS011;7491;57.750;11.970;2022-08-21T11:10:19;5.43;;;1.38;;
14799;SDS011;7491;57.750;11.970;2022-08-21T11:12:50;2.17;;;1.30;;
14799;SDS011;7491;57.750;11.970;2022-08-21T11:15:43;5.57;;;1.40;;
14799;SDS011;7491;57.750;11.970;2022-08-21T11:18:17;4.32;;;1.50;;
14799;SDS011;7491;57.750;11.970;2022-08-21T11:20:51;4.18;;;1.25;;
14799;SDS011;7491;57.750;11.970;2022-08-21T11:23:28;7.43;;;1.58;;
14799;SDS011;7491;57.750;11.970;2022-08-21T11:26:04;3.58;;;1.20;;
14799;SDS011;7491;57.750;11.970;2022-08-21T11:28:35;6.07;;;1.73;;
14799;SDS011;7491;57.750;11.970;2022-08-21T11:31:10;3.97;;;1.50;;
14799;SDS011;7491;57.750;11.970;2022-08-21T11:33:56;3.45;;;1.20;;
14799;SDS011;7491;57.750;11.970;2022-08-21T11:36:35;5.18;;;1.48;;
14799;SDS011;7491;57.750;11.970;2022-08-21T11:39:10;4.38;;;1.60;;
14799;SDS011;7491;57.750;11.970;2022-08-21T11:41:43;4.50;;;1.55;;
14799;SDS011;7491;57.750;11.970;2022-08-21T11:44:19;3.30;;;1.42;;
14799;SDS011;7491;57.750;11.970;2022-08-21T11:46:54;4.65;;;1.40;;
14799;SDS011;7491;57.750;11.970;2022-08-21T11:49:31;4.10;;;1.42;;
14799;SDS011;7491;57.750;11.970;2022-08-21T11:52:08;5.88;;;1.63;;
14799;SDS011;7491;57.750;11.970;2022-08-21T11:54:43;3.17;;;1.42;;
14799;SDS011;7491;57.750;11.970;2022-08-21T11:57:14;3.13;;;1.60;;
14799;SDS011;7491;57.750;11.970;2022-08-21T11:59:46;3.90;;;1.65;;
14799;SDS011;7491;57.750;11.970;2022-08-21T12:02:18;3.28;;;1.20;;
14799;SDS011;7491;57.750;11.970;2022-08-21T12:04:51;5.85;;;1.60;;
14799;SDS011;7491;57.750;11.970;2022-08-21T12:07:29;6.65;;;1.80;;
14799;SDS011;7491;57.750;11.970;2022-08-21T12:10:00;4.57;;;1.42;;
14799;SDS011;7491;57.750;11.970;2022-08-21T12:12:29;5.07;;;1.50;;
14799;SDS011;7491;57.750;11.970;2022-08-21T12:15:07;6.20;;;1.50;;
14799;SDS011;7491;57.750;11.970;2022-08-21T12:17:50;6.60;;;1.83;;
14799;SDS011;7491;57.750;11.970;2022-08-21T12:20:25;6.78;;;1.77;;
14799;SDS011;7491;57.750;11.970;2022-08-21T12:23:04;6.50;;;1.40;;
14799;SDS011;7491;57.750;11.970;2022-08-21T12:25:44;2.90;;;1.38;;
14799;SDS011;7491;57.750;11.970;2022-08-21T12:28:14;7.47;;;2.33;;
14799;SDS011;7491;57.750;11.970;2022-08-21T12:30:43;6.93;;;2.10;;
14799;SDS011;7491;57.750;11.970;2022-08-21T12:33:22;6.03;;;2.05;;
14799;SDS011;7491;57.750;11.970;2022-08-21T12:36:00;4.10;;;1.45;;
14799;SDS011;7491;57.750;11.970;2022-08-21T12:38:29;5.50;;;1.83;;
14799;SDS011;7491;57.750;11.970;2022-08-21T12:41:00;6.35;;;1.55;;
14799;SDS011;7491;57.750;11.970;2022-08-21T12:43:31;5.60;;;1.63;;
14799;SDS011;7491;57.750;11.970;2022-08-21T12:46:00;9.02;;;1.67;;
14799;SDS011;7491;57.750;11.970;2022-08-21T12:48:31;6.68;;;1.63;;
14799;SDS011;7491;57.750;11.970;2022-08-21T12:51:07;3.28;;;1.45;;
14799;SDS011;7491;57.750;11.970;2022-08-21T12:53:40;4.97;;;2.00;;
14799;SDS011;7491;57.750;11.970;2022-08-21T12:56:12;6.50;;;1.95;;
14799;SDS011;7491;57.750;11.970;2022-08-21T12:58:40;7.95;;;1.80;;
14799;SDS011;7491;57.750;11.970;2022-08-21T13:01:13;3.70;;;1.75;;
14799;SDS011;7491;57.750;11.970;2022-08-21T13:04:12;4.78;;;1.50;;
14799;SDS011;7491;57.750;11.970;2022-08-21T13:06:44;7.68;;;2.00;;
14799;SDS011;7491;57.750;11.970;2022-08-21T13:09:14;6.95;;;2.10;;
14799;SDS011;7491;57.750;11.970;2022-08-21T13:11:43;4.75;;;1.75;;
14799;SDS011;7491;57.750;11.970;2022-08-21T13:14:13;8.98;;;2.20;;
14799;SDS011;7491;57.750;11.970;2022-08-21T13:16:48;4.13;;;1.95;;
14799;SDS011;7491;57.750;11.970;2022-08-21T13:19:19;5.82;;;1.70;;
14799;SDS011;7491;57.750;11.970;2022-08-21T13:21:47;6.53;;;2.05;;
14799;SDS011;7491;57.750;11.970;2022-08-21T13:24:16;6.72;;;1.70;;
14799;SDS011;7491;57.750;11.970;2022-08-21T13:26:44;5.18;;;1.63;;
14799;SDS011;7491;57.750;11.970;2022-08-21T13:29:12;4.15;;;1.60;;
14799;SDS011;7491;57.750;11.970;2022-08-21T13:31:42;4.72;;;1.83;;
14799;SDS011;7491;57.750;11.970;2022-08-21T13:34:14;5.47;;;1.40;;
14799;SDS011;7491;57.750;11.970;2022-08-21T13:36:42;6.05;;;2.13;;
14799;SDS011;7491;57.750;11.970;2022-08-21T13:39:11;3.72;;;1.65;;
14799;SDS011;7491;57.750;11.970;2022-08-21T13:41:43;3.65;;;1.70;;
14799;SDS011;7491;57.750;11.970;2022-08-21T13:44:16;5.30;;;1.80;;
14799;SDS011;7491;57.750;11.970;2022-08-21T13:46:45;5.93;;;1.75;;
14799;SDS011;7491;57.750;11.970;2022-08-21T13:49:14;7.47;;;1.85;;
14799;SDS011;7491;57.750;11.970;2022-08-21T13:51:42;7.25;;;1.80;;
14799;SDS011;7491;57.750;11.970;2022-08-21T13:54:20;4.15;;;1.55;;
14799;SDS011;7491;57.750;11.970;2022-08-21T13:56:50;3.33;;;1.65;;
14799;SDS011;7491;57.750;11.970;2022-08-21T13:59:24;4.95;;;1.65;;
14799;SDS011;7491;57.750;11.970;2022-08-21T14:01:53;6.88;;;2.17;;
14799;SDS011;7491;57.750;11.970;2022-08-21T14:04:25;5.38;;;1.92;;
14799;SDS011;7491;57.750;11.970;2022-08-21T14:06:57;5.80;;;2.08;;
14799;SDS011;7491;57.750;11.970;2022-08-21T14:09:28;5.47;;;1.60;;
14799;SDS011;7491;57.750;11.970;2022-08-21T14:11:58;4.88;;;1.73;;
14799;SDS011;7491;57.750;11.970;2022-08-21T14:14:29;4.10;;;2.20;;
14799;SDS011;7491;57.750;11.970;2022-08-21T14:16:58;8.13;;;1.60;;
14799;SDS011;7491;57.750;11.970;2022-08-21T14:19:27;7.10;;;2.00;;
14799;SDS011;7491;57.750;11.970;2022-08-21T14:22:12;6.37;;;1.80;;
14799;SDS011;7491;57.750;11.970;2022-08-21T14:24:49;6.45;;;2.00;;
14799;SDS011;7491;57.750;11.970;2022-08-21T14:27:26;13.00;;;2.58;;
14799;SDS011;7491;57.750;11.970;2022-08-21T14:29:57;4.75;;;1.77;;
14799;SDS011;7491;57.750;11.970;2022-08-21T14:32:27;3.15;;;1.80;;
14799;SDS011;7491;57.750;11.970;2022-08-21T14:34:56;9.63;;;2.10;;
14799;SDS011;7491;57.750;11.970;2022-08-21T14:37:23;6.03;;;1.83;;
14799;SDS011;7491;57.750;11.970;2022-08-21T14:39:51;5.78;;;2.20;;
14799;SDS011;7491;57.750;11.970;2022-08-21T14:42:18;4.47;;;1.83;;
14799;SDS011;7491;57.750;11.970;2022-08-21T14:44:45;7.88;;;2.10;;
14799;SDS011;7491;57.750;11.970;2022-08-21T14:47:12;6.25;;;2.08;;
14799;SDS011;7491;57.750;11.970;2022-08-21T14:49:39;8.30;;;2.13;;
14799;SDS011;7491;57.750;11.970;2022-08-21T14:52:07;7.57;;;1.50;;
14799;SDS011;7491;57.750;11.970;2022-08-21T14:54:34;5.72;;;1.80;;
14799;SDS011;7491;57.750;11.970;2022-08-21T14:57:04;7.22;;;1.85;;
14799;SDS011;7491;57.750;11.970;2022-08-21T14:59:34;6.78;;;1.70;;
14799;SDS011;7491;57.750;11.970;2022-08-21T15:02:01;5.47;;;2.03;;
14799;SDS011;7491;57.750;11.970;2022-08-21T15:04:29;6.88;;;1.98;;
14799;SDS011;7491;57.750;11.970;2022-08-21T15:06:56;8.70;;;2.50;;
14799;SDS011;7491;57.750;11.970;2022-08-21T15:09:22;3.95;;;1.70;;
14799;SDS011;7491;57.750;11.970;2022-08-21T15:11:49;8.40;;;2.05;;
14799;SDS011;7491;57.750;11.970;2022-08-21T15:14:19;9.20;;;2.20;;
14799;SDS011;7491;57.750;11.970;2022-08-21T15:16:56;10.23;;;2.35;;